createdAt,value
2024-04-22T00:00:18.480Z,5.70
2024-04-22T00:02:45.310Z,5.60
2024-04-22T00:05:13.538Z,5.60
2024-04-22T00:07:40.340Z,5.60
2024-04-22T00:10:07.467Z,5.60
2024-04-22T00:12:34.294Z,5.50
2024-04-22T00:15:01.177Z,5.50
2024-04-22T00:17:28.033Z,5.50
2024-04-22T00:19:54.835Z,5.50
2024-04-22T00:22:21.751Z,5.50
2024-04-22T00:24:48.593Z,5.40
2024-04-22T00:27:15.401Z,5.40
2024-04-22T00:29:42.144Z,5.30
2024-04-22T00:32:08.956Z,5.30
2024-04-22T00:34:35.859Z,5.30
2024-04-22T00:37:05.662Z,5.20
2024-04-22T00:39:32.414Z,5.20
2024-04-22T00:41:59.237Z,5.10
2024-04-22T00:44:26.085Z,5.10
2024-04-22T00:46:53.028Z,5.00
2024-04-22T00:49:19.993Z,5.00
2024-04-22T00:51:47.219Z,5.00
2024-04-22T00:54:15.640Z,5.00
2024-04-22T00:56:42.603Z,5.00
2024-04-22T00:59:09.528Z,4.90
2024-04-22T01:01:38.109Z,4.90
2024-04-22T01:04:05.853Z,4.90
2024-04-22T01:06:32.840Z,4.90
2024-04-22T01:08:59.576Z,4.90
2024-04-22T01:11:26.671Z,4.90
2024-04-22T01:13:55.388Z,4.80
2024-04-22T01:16:22.212Z,4.80
2024-04-22T01:18:49.122Z,4.70
2024-04-22T01:21:15.916Z,4.70
2024-04-22T01:23:46.243Z,4.70
2024-04-22T01:26:13.380Z,4.70
2024-04-22T01:28:40.235Z,4.70
2024-04-22T01:31:07.111Z,4.70
2024-04-22T01:33:33.917Z,4.70
2024-04-22T01:36:00.672Z,4.70
2024-04-22T01:38:27.408Z,4.60
2024-04-22T01:40:54.172Z,4.50
2024-04-22T01:43:21.003Z,4.50
2024-04-22T01:45:47.943Z,4.50
2024-04-22T01:48:14.779Z,4.50
2024-04-22T01:50:41.583Z,4.50
2024-04-22T01:53:08.359Z,4.50
2024-04-22T01:55:35.172Z,4.50
2024-04-22T01:58:02.044Z,4.40
2024-04-22T02:00:28.809Z,4.40
2024-04-22T02:02:55.627Z,4.30
2024-04-22T02:05:23.276Z,4.30
2024-04-22T02:07:50.091Z,4.30
2024-04-22T02:10:23.282Z,4.30
2024-04-22T02:12:52.343Z,4.20
2024-04-22T02:15:19.154Z,4.20
2024-04-22T02:17:46.089Z,4.20
2024-04-22T02:20:13.379Z,4.20
2024-04-22T02:22:40.231Z,4.10
2024-04-22T02:25:07.371Z,4.10
2024-04-22T02:27:34.219Z,4.10
2024-04-22T02:30:01.027Z,4.00
2024-04-22T02:32:29.137Z,4.00
2024-04-22T02:34:56.013Z,4.00
2024-04-22T02:37:22.930Z,4.00
2024-04-22T02:39:49.745Z,4.00
2024-04-22T02:42:16.495Z,4.00
2024-04-22T02:44:43.240Z,4.00
2024-04-22T02:47:10.037Z,4.00
2024-04-22T02:49:37.122Z,4.00
2024-04-22T02:52:04.030Z,4.00
2024-04-22T02:54:32.858Z,4.00
2024-04-22T02:56:59.665Z,4.00
2024-04-22T02:59:26.467Z,4.00
2024-04-22T03:01:53.389Z,4.00
2024-04-22T03:04:20.208Z,4.00
2024-04-22T03:06:48.316Z,3.90
2024-04-22T03:09:15.763Z,3.90
2024-04-22T03:11:42.627Z,3.90
2024-04-22T03:14:09.388Z,3.90
2024-04-22T03:16:36.160Z,3.90
2024-04-22T03:19:02.977Z,3.90
2024-04-22T03:21:29.762Z,3.90
2024-04-22T03:23:56.521Z,3.90
2024-04-22T03:26:23.301Z,3.90
2024-04-22T03:28:50.158Z,3.90
2024-04-22T03:31:17.015Z,3.90
2024-04-22T03:33:43.890Z,3.90
2024-04-22T03:36:10.715Z,3.90
2024-04-22T03:38:37.491Z,3.90
2024-04-22T03:41:04.510Z,3.90
2024-04-22T03:43:31.299Z,3.90
2024-04-22T03:46:16.652Z,3.90
2024-04-22T03:49:02.019Z,3.90
2024-04-22T03:51:28.788Z,3.80
2024-04-22T03:53:55.544Z,3.90
2024-04-22T03:56:22.429Z,3.90
2024-04-22T03:58:49.173Z,3.80
2024-04-22T04:01:17.371Z,3.80
2024-04-22T04:03:44.348Z,3.70
2024-04-22T04:06:11.183Z,3.70
2024-04-22T04:08:38.010Z,3.70
2024-04-22T04:11:14.249Z,3.80
2024-04-22T04:13:42.102Z,3.80
2024-04-22T04:16:11.751Z,3.80
2024-04-22T04:18:42.623Z,3.80
2024-04-22T04:21:09.410Z,3.80
2024-04-22T04:23:36.221Z,3.80
2024-04-22T04:26:03.198Z,3.80
2024-04-22T04:28:30.025Z,3.80
2024-04-22T04:31:00.649Z,3.80
2024-04-22T04:33:28.104Z,3.80
2024-04-22T04:36:05.909Z,3.80
2024-04-22T04:38:33.372Z,3.80
2024-04-22T04:41:00.914Z,3.80
2024-04-22T04:43:28.070Z,3.80
2024-04-22T04:45:55.054Z,3.80
2024-04-22T04:48:23.026Z,3.80
2024-04-22T04:50:50.571Z,3.80
2024-04-22T04:53:18.724Z,3.80
2024-04-22T04:55:49.135Z,3.80
2024-04-22T04:58:16.529Z,3.90
2024-04-22T05:00:43.722Z,3.90
2024-04-22T05:03:10.705Z,4.00
2024-04-22T05:05:37.488Z,4.00
2024-04-22T05:08:05.322Z,4.00
2024-04-22T05:10:32.596Z,4.10
2024-04-22T05:12:59.432Z,4.10
2024-04-22T05:15:26.666Z,4.10
2024-04-22T05:17:53.597Z,4.20
2024-04-22T05:20:20.581Z,4.20
2024-04-22T05:22:47.398Z,4.30
2024-04-22T05:25:14.274Z,4.30
2024-04-22T05:27:41.084Z,4.30
2024-04-22T05:30:08.253Z,4.30
2024-04-22T05:32:35.160Z,4.40
2024-04-22T05:35:20.559Z,4.40
2024-04-22T05:37:47.372Z,4.50
2024-04-22T05:40:14.251Z,4.50
2024-04-22T05:42:41.070Z,4.60
2024-04-22T05:45:07.967Z,4.60
2024-04-22T05:47:34.798Z,4.80
2024-04-22T05:50:03.266Z,4.80
2024-04-22T05:52:30.076Z,5.00
2024-04-22T05:54:56.906Z,5.10
2024-04-22T05:57:23.950Z,5.20
2024-04-22T05:59:50.820Z,5.30
2024-04-22T06:02:17.619Z,5.50
2024-04-22T06:04:44.425Z,5.60
2024-04-22T06:07:11.277Z,5.70
2024-04-22T06:09:38.149Z,5.90
2024-04-22T06:12:15.156Z,5.90
2024-04-22T06:14:46.052Z,6.00
2024-04-22T06:17:12.962Z,6.10
2024-04-22T06:19:40.241Z,6.10
2024-04-22T06:22:07.105Z,6.20
2024-04-22T06:24:33.959Z,6.20
2024-04-22T06:27:00.716Z,6.20
2024-04-22T06:29:27.501Z,6.30
2024-04-22T06:31:54.380Z,6.30
2024-04-22T06:34:21.280Z,6.40
2024-04-22T06:36:48.079Z,6.50
2024-04-22T06:39:15.003Z,6.50
2024-04-22T06:41:41.768Z,6.50
2024-04-22T06:44:08.636Z,6.60
2024-04-22T06:46:35.572Z,6.70
2024-04-22T06:49:02.449Z,6.80
2024-04-22T06:51:29.283Z,7.00
2024-04-22T06:53:56.081Z,7.10
2024-04-22T06:56:22.863Z,7.30
2024-04-22T06:58:49.660Z,7.40
2024-04-22T07:01:26.847Z,7.60
2024-04-22T07:03:59.518Z,7.70
2024-04-22T07:06:26.687Z,7.80
2024-04-22T07:08:53.656Z,7.90
2024-04-22T07:11:20.548Z,8.10
2024-04-22T07:13:47.674Z,8.20
2024-04-22T07:16:15.413Z,8.30
2024-04-22T07:18:42.363Z,8.40
2024-04-22T07:21:09.151Z,8.60
2024-04-22T07:23:35.970Z,8.80
2024-04-22T07:26:06.280Z,8.90
2024-04-22T07:28:33.545Z,8.90
2024-04-22T07:31:00.605Z,9.10
2024-04-22T07:33:31.439Z,9.20
2024-04-22T07:36:18.734Z,9.30
2024-04-22T07:38:49.040Z,9.50
2024-04-22T07:41:16.110Z,9.50
2024-04-22T07:43:43.137Z,9.70
2024-04-22T07:46:09.963Z,9.70
2024-04-22T07:48:36.783Z,9.80
2024-04-22T07:51:04.529Z,9.80
2024-04-22T07:53:31.715Z,10.00
2024-04-22T07:55:58.779Z,10.10
2024-04-22T07:58:25.805Z,10.10
2024-04-22T08:00:53.428Z,10.20
2024-04-22T08:03:20.715Z,10.30
2024-04-22T08:05:47.892Z,10.40
2024-04-22T08:08:19.986Z,10.50
2024-04-22T08:10:47.100Z,10.60
2024-04-22T08:13:13.985Z,10.60
2024-04-22T08:15:41.122Z,10.70
2024-04-22T08:18:08.072Z,10.70
2024-04-22T08:20:35.173Z,10.80
2024-04-22T08:23:01.995Z,10.90
2024-04-22T08:25:28.892Z,11.10
2024-04-22T08:27:55.732Z,11.20
2024-04-22T08:30:22.558Z,11.30
2024-04-22T08:32:49.567Z,11.50
2024-04-22T08:35:16.477Z,11.50
2024-04-22T08:37:43.464Z,11.50
2024-04-22T08:40:11.691Z,11.60
2024-04-22T08:42:39.800Z,11.60
2024-04-22T08:45:08.252Z,11.60
2024-04-22T08:47:35.241Z,11.50
2024-04-22T08:50:02.165Z,11.50
2024-04-22T08:52:36.601Z,11.40
2024-04-22T08:55:07.451Z,11.50
2024-04-22T08:57:34.359Z,11.50
2024-04-22T09:00:01.187Z,11.50
2024-04-22T09:02:27.947Z,11.40
2024-04-22T09:04:54.927Z,11.20
2024-04-22T09:07:21.757Z,10.90
2024-04-22T09:10:07.771Z,10.60
2024-04-22T09:12:36.059Z,10.60
2024-04-22T09:15:04.133Z,10.60
2024-04-22T09:17:31.917Z,10.60
2024-04-22T09:19:59.091Z,10.60
2024-04-22T09:22:26.038Z,10.60
2024-04-22T09:24:53.198Z,10.40
2024-04-22T09:27:20.045Z,10.30
2024-04-22T09:29:49.273Z,10.10
2024-04-22T09:32:17.852Z,10.10
2024-04-22T09:34:45.104Z,10.00
2024-04-22T09:37:12.252Z,10.00
2024-04-22T09:39:41.376Z,10.10
2024-04-22T09:42:09.646Z,10.30
2024-04-22T09:44:37.620Z,10.60
2024-04-22T09:47:06.323Z,10.80
2024-04-22T09:49:36.879Z,10.80
2024-04-22T09:52:05.737Z,10.90
2024-04-22T09:54:32.698Z,10.90
2024-04-22T09:57:00.790Z,10.80
2024-04-22T09:59:27.869Z,10.80
2024-04-22T10:01:54.981Z,10.90
2024-04-22T10:04:22.224Z,11.20
2024-04-22T10:06:51.239Z,11.60
2024-04-22T10:09:18.527Z,12.10
2024-04-22T10:11:45.814Z,12.30
2024-04-22T10:14:15.703Z,12.30
2024-04-22T10:17:05.253Z,12.00
2024-04-22T10:19:33.328Z,11.40
2024-04-22T10:22:02.082Z,11.30
2024-04-22T10:24:38.869Z,11.40
2024-04-22T10:27:11.913Z,11.60
2024-04-22T10:29:41.982Z,11.90
2024-04-22T10:32:08.872Z,12.00
2024-04-22T10:34:39.793Z,11.90
2024-04-22T10:37:07.202Z,11.80
2024-04-22T10:39:34.073Z,11.70
2024-04-22T10:42:01.323Z,11.50
2024-04-22T10:44:28.352Z,11.40
2024-04-22T10:46:56.642Z,11.40
2024-04-22T10:49:30.515Z,11.50
2024-04-22T10:51:57.499Z,11.50
2024-04-22T10:54:24.334Z,11.70
2024-04-22T10:56:51.062Z,11.50
2024-04-22T10:59:19.075Z,11.40
2024-04-22T11:01:47.004Z,11.40
2024-04-22T11:04:14.428Z,11.20
2024-04-22T11:06:41.823Z,10.90
2024-04-22T11:09:11.000Z,11.00
2024-04-22T11:11:38.589Z,10.90
2024-04-22T11:14:06.233Z,11.10
2024-04-22T11:16:33.176Z,11.30
2024-04-22T11:19:06.876Z,11.50
2024-04-22T11:21:35.748Z,11.50
2024-04-22T11:24:03.728Z,11.50
2024-04-22T11:26:30.744Z,11.30
2024-04-22T11:29:00.169Z,11.20
2024-04-22T11:31:27.337Z,11.20
2024-04-22T11:33:57.269Z,11.30
2024-04-22T11:36:26.699Z,11.70
2024-04-22T11:38:55.989Z,12.00
2024-04-22T11:41:23.341Z,12.00
2024-04-22T11:43:50.326Z,12.00
2024-04-22T11:46:17.224Z,12.00
2024-04-22T11:48:44.165Z,12.30
2024-04-22T11:51:11.033Z,12.20
2024-04-22T11:53:37.919Z,11.80
2024-04-22T11:56:08.248Z,11.60
2024-04-22T11:58:35.884Z,11.40
2024-04-22T12:01:02.916Z,11.30
2024-04-22T12:03:29.730Z,11.10
2024-04-22T12:05:56.628Z,11.20
2024-04-22T12:08:23.446Z,11.40
2024-04-22T12:10:51.520Z,11.70
2024-04-22T12:13:18.592Z,12.00
2024-04-22T12:15:45.431Z,12.30
2024-04-22T12:18:12.222Z,12.60
2024-04-22T12:20:39.072Z,12.70
2024-04-22T12:23:05.865Z,13.00
2024-04-22T12:25:32.657Z,13.10
2024-04-22T12:28:09.462Z,13.00
2024-04-22T12:30:41.001Z,12.50
2024-04-22T12:33:07.964Z,12.20
2024-04-22T12:35:39.063Z,11.90
2024-04-22T12:38:07.120Z,11.60
2024-04-22T12:40:35.156Z,11.50
2024-04-22T12:43:03.402Z,11.60
2024-04-22T12:45:30.551Z,11.70
2024-04-22T12:48:16.241Z,11.70
2024-04-22T12:50:53.837Z,11.80
2024-04-22T12:53:20.680Z,11.90
2024-04-22T12:55:47.488Z,11.80
2024-04-22T12:58:15.664Z,11.90
2024-04-22T13:00:42.766Z,12.00
2024-04-22T13:03:09.809Z,12.30
2024-04-22T13:05:36.592Z,12.50
2024-04-22T13:08:03.530Z,12.70
2024-04-22T13:10:30.546Z,12.70
2024-04-22T13:12:57.444Z,12.40
2024-04-22T13:15:24.283Z,12.50
2024-04-22T13:17:51.695Z,12.60
2024-04-22T13:20:18.629Z,12.70
2024-04-22T13:22:45.512Z,12.70
2024-04-22T13:25:12.418Z,12.90
2024-04-22T13:27:39.144Z,13.00
2024-04-22T13:30:10.324Z,13.00
2024-04-22T13:32:38.458Z,12.90
2024-04-22T13:35:05.879Z,12.90
2024-04-22T13:37:33.235Z,12.80
2024-04-22T13:40:00.038Z,13.00
2024-04-22T13:42:31.302Z,13.20
2024-04-22T13:45:00.584Z,13.20
2024-04-22T13:47:27.430Z,13.00
2024-04-22T13:49:54.314Z,12.80
2024-04-22T13:52:21.190Z,12.80
2024-04-22T13:54:48.085Z,12.60
2024-04-22T13:57:14.962Z,12.30
2024-04-22T13:59:41.737Z,12.10
2024-04-22T14:02:08.682Z,11.80
2024-04-22T14:04:35.608Z,11.70
2024-04-22T14:07:04.709Z,11.80
2024-04-22T14:09:33.164Z,11.80
2024-04-22T14:12:00.046Z,12.10
2024-04-22T14:14:29.929Z,12.40
2024-04-22T14:16:56.971Z,12.60
2024-04-22T14:19:25.926Z,12.70
2024-04-22T14:21:52.732Z,12.70
2024-04-22T14:24:19.493Z,12.70
2024-04-22T14:26:46.243Z,12.40
2024-04-22T14:29:13.014Z,12.60
2024-04-22T14:31:39.946Z,12.70
2024-04-22T14:34:07.506Z,13.00
2024-04-22T14:36:34.282Z,13.00
2024-04-22T14:39:01.052Z,12.90
2024-04-22T14:41:27.864Z,12.70
2024-04-22T14:43:54.991Z,12.60
2024-04-22T14:46:21.946Z,12.50
2024-04-22T14:48:48.928Z,12.50
2024-04-22T14:51:15.742Z,12.40
2024-04-22T14:53:42.577Z,12.70
2024-04-22T14:56:09.484Z,12.50
2024-04-22T14:58:36.405Z,12.20
2024-04-22T15:01:03.313Z,11.90
2024-04-22T15:03:30.297Z,11.50
2024-04-22T15:05:57.222Z,11.40
2024-04-22T15:08:24.192Z,11.40
2024-04-22T15:10:52.663Z,11.40
2024-04-22T15:13:20.395Z,11.50
2024-04-22T15:15:47.294Z,11.40
2024-04-22T15:18:14.265Z,11.40
2024-04-22T15:20:41.191Z,11.40
2024-04-22T15:23:08.001Z,11.40
2024-04-22T15:25:34.828Z,11.30
2024-04-22T15:28:01.627Z,11.30
2024-04-22T15:30:29.838Z,11.30
2024-04-22T15:32:56.954Z,11.10
2024-04-22T15:35:24.691Z,11.20
2024-04-22T15:37:52.225Z,11.20
2024-04-22T15:40:19.410Z,11.40
2024-04-22T15:42:46.305Z,11.40
2024-04-22T15:45:13.122Z,11.40
2024-04-22T15:47:39.981Z,11.50
2024-04-22T15:50:07.185Z,11.50
2024-04-22T15:52:34.453Z,11.60
2024-04-22T15:55:01.276Z,11.60
2024-04-22T15:57:28.117Z,11.50
2024-04-22T16:00:02.235Z,11.50
2024-04-22T16:02:36.771Z,11.50
2024-04-22T16:05:04.563Z,11.50
2024-04-22T16:07:31.769Z,11.30
2024-04-22T16:09:58.806Z,11.20
2024-04-22T16:12:25.703Z,11.10
2024-04-22T16:14:52.810Z,11.00
2024-04-22T16:17:19.752Z,11.00
2024-04-22T16:19:46.649Z,11.10
2024-04-22T16:22:13.498Z,11.00
2024-04-22T16:24:40.347Z,11.00
2024-04-22T16:27:07.101Z,11.00
2024-04-22T16:29:33.970Z,11.00
2024-04-22T16:32:00.958Z,11.10
2024-04-22T16:34:27.967Z,11.20
2024-04-22T16:36:54.771Z,11.10
2024-04-22T16:39:21.536Z,11.10
2024-04-22T16:41:48.321Z,11.00
2024-04-22T16:44:15.099Z,11.00
2024-04-22T16:46:41.858Z,11.10
2024-04-22T16:49:08.788Z,10.90
2024-04-22T16:51:35.629Z,10.80
2024-04-22T16:54:02.397Z,10.70
2024-04-22T16:56:29.145Z,10.60
2024-04-22T16:58:55.923Z,10.50
2024-04-22T17:01:24.658Z,10.50
2024-04-22T17:03:51.582Z,10.50
2024-04-22T17:06:18.527Z,10.50
2024-04-22T17:08:45.365Z,10.50
2024-04-22T17:11:12.238Z,10.40
2024-04-22T17:13:39.129Z,10.30
2024-04-22T17:16:06.388Z,10.30
2024-04-22T17:18:33.475Z,10.30
2024-04-22T17:21:00.450Z,10.30
2024-04-22T17:23:28.543Z,10.30
2024-04-22T17:25:55.732Z,10.30
2024-04-22T17:28:22.841Z,10.30
2024-04-22T17:30:53.234Z,10.30
2024-04-22T17:33:20.568Z,10.30
2024-04-22T17:35:49.157Z,10.20
2024-04-22T17:38:16.239Z,10.10
2024-04-22T17:40:52.891Z,10.00
2024-04-22T17:43:19.845Z,10.00
2024-04-22T17:45:46.768Z,9.90
2024-04-22T17:48:14.040Z,9.80
2024-04-22T17:50:41.343Z,9.80
2024-04-22T17:53:08.140Z,9.80
2024-04-22T17:55:35.554Z,9.70
2024-04-22T17:58:02.438Z,9.70
2024-04-22T18:00:29.204Z,9.50
2024-04-22T18:02:56.020Z,9.50
2024-04-22T18:05:22.865Z,9.60
2024-04-22T18:07:49.724Z,9.60
2024-04-22T18:10:18.462Z,9.60
2024-04-22T18:12:45.370Z,9.50
2024-04-22T18:15:12.098Z,9.40
2024-04-22T18:17:38.974Z,9.40
2024-04-22T18:20:06.591Z,9.30
2024-04-22T18:22:41.242Z,9.20
2024-04-22T18:25:12.632Z,9.30
2024-04-22T18:27:39.382Z,9.30
2024-04-22T18:30:06.572Z,9.20
2024-04-22T18:32:33.387Z,9.20
2024-04-22T18:35:00.327Z,9.30
2024-04-22T18:37:27.745Z,9.10
2024-04-22T18:39:56.763Z,9.00
2024-04-22T18:42:23.924Z,9.00
2024-04-22T18:44:50.727Z,9.00
2024-04-22T18:47:17.560Z,9.00
2024-04-22T18:49:44.388Z,9.00
2024-04-22T18:52:11.221Z,9.00
2024-04-22T18:54:38.145Z,8.90
2024-04-22T18:57:06.821Z,8.90
2024-04-22T18:59:34.273Z,8.80
2024-04-22T19:02:04.652Z,8.80
2024-04-22T19:04:31.862Z,8.70
2024-04-22T19:06:58.726Z,8.70
2024-04-22T19:09:25.560Z,8.70
2024-04-22T19:11:52.372Z,8.70
2024-04-22T19:14:19.261Z,8.60
2024-04-22T19:16:46.109Z,8.60
2024-04-22T19:19:12.994Z,8.50
2024-04-22T19:21:39.837Z,8.50
2024-04-22T19:24:07.166Z,8.50
2024-04-22T19:26:33.958Z,8.40
2024-04-22T19:29:01.188Z,8.40
2024-04-22T19:31:28.064Z,8.30
2024-04-22T19:33:55.302Z,8.30
2024-04-22T19:36:22.529Z,8.20
2024-04-22T19:38:49.285Z,8.20
2024-04-22T19:41:16.030Z,8.20
2024-04-22T19:43:42.801Z,8.20
2024-04-22T19:46:09.713Z,8.10
2024-04-22T19:48:36.553Z,8.00
2024-04-22T19:51:03.358Z,8.00
2024-04-22T19:53:30.141Z,8.00
2024-04-22T19:55:57.245Z,7.90
2024-04-22T19:58:24.451Z,7.90
2024-04-22T20:00:51.235Z,7.90
2024-04-22T20:03:18.195Z,7.80
2024-04-22T20:05:46.219Z,7.80
2024-04-22T20:08:13.633Z,7.80
2024-04-22T20:10:43.869Z,7.70
2024-04-22T20:13:11.281Z,7.70
2024-04-22T20:15:50.789Z,7.60
2024-04-22T20:18:29.177Z,7.60
2024-04-22T20:20:59.475Z,7.60
2024-04-22T20:23:26.263Z,7.60
2024-04-22T20:25:57.393Z,7.60
2024-04-22T20:28:24.734Z,7.50
2024-04-22T20:30:51.567Z,7.50
2024-04-22T20:33:18.540Z,7.50
2024-04-22T20:36:05.904Z,7.40
2024-04-22T20:38:33.326Z,7.40
2024-04-22T20:41:01.887Z,7.40
2024-04-22T20:43:33.326Z,7.30
2024-04-22T20:46:01.359Z,7.30
2024-04-22T20:48:37.190Z,7.30
2024-04-22T20:51:05.862Z,7.20
2024-04-22T20:53:34.238Z,7.20
2024-04-22T20:56:05.160Z,7.20
2024-04-22T20:58:32.983Z,7.20
2024-04-22T21:01:02.530Z,7.10
2024-04-22T21:03:29.710Z,7.10
2024-04-22T21:06:01.419Z,7.10
2024-04-22T21:08:28.724Z,7.00
2024-04-22T21:10:58.482Z,7.00
2024-04-22T21:13:25.529Z,6.90
2024-04-22T21:15:55.463Z,6.90
2024-04-22T21:18:22.695Z,6.90
2024-04-22T21:20:49.891Z,6.90
2024-04-22T21:23:16.962Z,6.90
2024-04-22T21:25:43.916Z,6.80
2024-04-22T21:28:10.765Z,6.80
2024-04-22T21:30:37.535Z,6.80
2024-04-22T21:33:18.516Z,6.90
2024-04-22T21:35:51.304Z,6.80
2024-04-22T21:38:18.059Z,6.80
2024-04-22T21:40:45.881Z,6.80
2024-04-22T21:43:12.763Z,6.80
2024-04-22T21:45:39.630Z,6.70
2024-04-22T21:48:06.862Z,6.70
2024-04-22T21:50:33.682Z,6.70
2024-04-22T21:53:00.424Z,6.60
2024-04-22T21:55:43.439Z,6.60
2024-04-22T21:58:50.728Z,6.50
2024-04-22T22:01:56.146Z,6.50
2024-04-22T22:05:00.806Z,6.50
2024-04-22T22:07:27.780Z,6.40
2024-04-22T22:09:55.576Z,6.30
2024-04-22T22:12:24.294Z,6.30
2024-04-22T22:14:52.122Z,6.30
2024-04-22T22:17:19.189Z,6.30
2024-04-22T22:19:47.829Z,6.30
2024-04-22T22:22:14.749Z,6.20
2024-04-22T22:24:43.516Z,6.20
2024-04-22T22:27:12.146Z,6.20
2024-04-22T22:29:39.723Z,6.10
2024-04-22T22:32:07.367Z,6.00
2024-04-22T22:34:34.304Z,6.00
2024-04-22T22:37:03.119Z,6.00
2024-04-22T22:39:30.325Z,5.90
2024-04-22T22:41:57.711Z,5.90
2024-04-22T22:44:25.368Z,5.90
2024-04-22T22:47:00.509Z,5.80
2024-04-22T22:49:27.505Z,5.80
2024-04-22T22:51:54.281Z,5.80
2024-04-22T22:54:21.550Z,5.80
2024-04-22T22:56:58.784Z,5.80
2024-04-22T22:59:25.871Z,5.70
2024-04-22T23:01:53.377Z,5.60
2024-04-22T23:04:20.400Z,5.60
2024-04-22T23:06:47.175Z,5.60
2024-04-22T23:09:14.302Z,5.50
2024-04-22T23:11:41.193Z,5.60
2024-04-22T23:14:08.073Z,5.50
2024-04-22T23:16:34.967Z,5.50
2024-04-22T23:19:01.885Z,5.50
2024-04-22T23:21:28.643Z,5.50
2024-04-22T23:23:55.385Z,5.50
2024-04-22T23:26:22.154Z,5.50
2024-04-22T23:28:48.985Z,5.50
2024-04-22T23:31:15.799Z,5.50
2024-04-22T23:33:42.705Z,5.50
2024-04-22T23:36:09.627Z,5.50
2024-04-22T23:38:36.423Z,5.40
2024-04-22T23:41:03.221Z,5.40
2024-04-22T23:43:30.022Z,5.40
2024-04-22T23:45:56.800Z,5.40
2024-04-22T23:48:23.577Z,5.40
2024-04-22T23:50:50.402Z,5.40
2024-04-22T23:53:17.313Z,5.40
2024-04-22T23:55:44.116Z,5.30
2024-04-22T23:58:10.904Z,5.30
